WetterOnline ( https://www.wetteronline.at )

Wetter aktuell Eindhoven

Aktuelles Wetter: Eindhoven (22m)

6-stündlich | Neueste Meldungen
Ortszeit Temperatur Wetter
Mi, 19.06. 8:00 21.9° C wolkig
Mi, 19.06. 2:00 20.4° C wolkenlos
Di, 18.06. 20:00 27.2° C leicht bewölkt
Di, 18.06. 14:00 27.0° C wolkig
Di, 18.06. 8:00 18.9° C wolkig
Di, 18.06. 2:00 16.2° C wolkig
Mo, 17.06. 20:00 25.3° C fast wolkenlos
Mo, 17.06. 14:00 24.4° C leicht bewölkt
Ortszeit Temperatur Wetter
Mi, 19.06. 8:25 23° C bedeckt
Mi, 19.06. 8:00 21.9° C wolkig
Mi, 19.06. 7:55 22° C wolkig
Mi, 19.06. 7:25 20° C bewölkt
Mi, 19.06. 7:00 19.7° C wolkig
Mi, 19.06. 6:55 20° C wolkig
Mi, 19.06. 6:25 19° C wolkig
Mi, 19.06. 6:00 18.6° C wolkig
Mi, 19.06. 5:25 18° C leicht bewölkt
Mi, 19.06. 5:00 18.5° C wolkenlos
Ortszeit Relative Feuchte Sichtweite
Mi, 19.06. 8:00 66% 19 km
Mi, 19.06. 2:00 73% 30 km
Di, 18.06. 20:00 42% 35 km
Di, 18.06. 14:00 45% 29 km
Di, 18.06. 8:00 80% 14 km
Di, 18.06. 2:00 87% 19 km
Mo, 17.06. 20:00 44% 35 km
Mo, 17.06. 14:00 42% 45 km
Ortszeit Relative Feuchte Sichtweite
Mi, 19.06. 8:25 65% >10 km
Mi, 19.06. 8:00 66% 19 km
Mi, 19.06. 7:55 69% >10 km
Mi, 19.06. 7:25 73% >10 km
Mi, 19.06. 7:00 77% 19 km
Mi, 19.06. 6:55 73% >10 km
Mi, 19.06. 6:25 78% >10 km
Mi, 19.06. 6:00 80% 11 km
Mi, 19.06. 5:25 83% >10 km
Mi, 19.06. 5:00 83% 14 km
Ortszeit Niederschlagsmenge Niederschlagsart
Mi, 19.06. 8:00 0.1 l/m2 in 12 Std. -
Mi, 19.06. 2:00 0.0 l/m2 in 6 Std. -
Di, 18.06. 20:00 0.0 l/m2 in 12 Std. -
Di, 18.06. 14:00 0.0 l/m2 in 6 Std. -
Di, 18.06. 8:00 0.0 l/m2 in 12 Std. -
Di, 18.06. 2:00 0.0 l/m2 in 6 Std. -
Mo, 17.06. 20:00 0.0 l/m2 in 12 Std. -
Mo, 17.06. 14:00 0.0 l/m2 in 6 Std. -
Ortszeit Niederschlagsmenge Niederschlagsart
Mi, 19.06. 8:25 keine Meldung -
Mi, 19.06. 8:00 0.0 l/m2 in 1 Std. -
Mi, 19.06. 7:55 keine Meldung -
Mi, 19.06. 7:25 keine Meldung -
Mi, 19.06. 7:00 0.0 l/m2 in 1 Std. -
Mi, 19.06. 6:55 keine Meldung -
Mi, 19.06. 6:25 keine Meldung -
Mi, 19.06. 6:00 0.0 l/m2 in 1 Std. -
Mi, 19.06. 5:25 keine Meldung -
Mi, 19.06. 5:00 keine Meldung -
Ortszeit Stärke Spitze Richtung
km/h Bft. km/h Grad Sektor
Mi, 19.06. 8:00 7 2 14 140° SO
Mi, 19.06. 2:00 7 2 14 80° O
Di, 18.06. 20:00 11 2 18 10° N
Di, 18.06. 14:00 11 2 18 360° N
Di, 18.06. 8:00 0 0 7 - -
Di, 18.06. 2:00 4 1 11 350° N
Mo, 17.06. 20:00 7 2 22 270° W
Mo, 17.06. 14:00 7 2 25 180° S
Ortszeit Stärke Spitze Richtung
km/h Bft. km/h Grad Sektor
Mi, 19.06. 8:25 9 2 - 230° SW
Mi, 19.06. 8:00 7 2 14 140° SO
Mi, 19.06. 7:55 6 1 - 120° SO
Mi, 19.06. 7:25 7 2 - 150° SO
Mi, 19.06. 7:00 7 2 14 120° SO
Mi, 19.06. 6:55 7 2 - 110° O
Mi, 19.06. 6:25 6 1 - 110° O
Mi, 19.06. 6:00 7 2 11 110° O
Mi, 19.06. 5:25 6 1 - 120° SO
Mi, 19.06. 5:00 4 1 11 90° O
Ortszeit Untergrenze Bedeckung Gattung
total tief tief mittel hoch
Mi, 19.06. 8:00 3300 m 8/8 1/8 - - -
Mi, 19.06. 2:00 - 0/8 0/8 - - -
Di, 18.06. 20:00 6900 m 4/8 4/8 - - -
Di, 18.06. 14:00 1800 m 8/8 1/8 - - -
Di, 18.06. 8:00 8100 m 7/8 0/8 - - -
Di, 18.06. 2:00 8100 m 8/8 0/8 - - -
Mo, 17.06. 20:00 - 1/8 1/8 - - -
Mo, 17.06. 14:00 - 2/8 2/8 - - -
Ortszeit Bedeckungsgrad in Achtel und Wolkenuntergrenze
Mi, 19.06. 8:25 8(3000m)
Mi, 19.06. 8:00 1(3300m) 8(9000m)
Mi, 19.06. 7:55 8(9000m)
Mi, 19.06. 7:25 5-7(3300m) 8(9000m)
Mi, 19.06. 7:00 8(9000m)
Mi, 19.06. 6:55 8(9000m)
Mi, 19.06. 6:25 8(9000m)
Mi, 19.06. 6:00 7(9000m)
Mi, 19.06. 5:25 5-7(9000m)
Mi, 19.06. 5:00 keine Wolken
Ortszeit Luftdruck NN (hPa) Tendenz (hPa in 3 Std.)
Mi, 19.06. 8:00 1007 - 1,2
Mi, 19.06. 2:00 1010 - 1,5
Di, 18.06. 20:00 1011 - 1,3
Di, 18.06. 14:00 1014 - 1,0
Di, 18.06. 8:00 1015 0,0
Di, 18.06. 2:00 1017 - 0,2
Mo, 17.06. 20:00 1017 - 1,0
Mo, 17.06. 14:00 1019 - 1,2
Ortszeit Luftdruck NN (hPa) Tendenz (hPa in 3 Std.)
Mi, 19.06. 8:25 1007 keine Meldung
Mi, 19.06. 8:00 1007 - 1,2
Mi, 19.06. 7:55 1006 keine Meldung
Mi, 19.06. 7:25 1007 keine Meldung
Mi, 19.06. 7:00 1007 - 1,7
Mi, 19.06. 6:55 1007 keine Meldung
Mi, 19.06. 6:25 1007 keine Meldung
Mi, 19.06. 6:00 1008 - 1,7
Mi, 19.06. 5:25 1008 keine Meldung
Mi, 19.06. 5:00 1008 - 1,7
Ortszeit Schneehöhe (cm)
Mi, 19.06. 8:00 -
Mi, 19.06. 2:00 -
Di, 18.06. 20:00 -
Di, 18.06. 14:00 -
Di, 18.06. 8:00 -
Di, 18.06. 2:00 -
Mo, 17.06. 20:00 -
Mo, 17.06. 14:00 -
Ortszeit Schneehöhe (cm)
Mi, 19.06. 8:25 -
Mi, 19.06. 8:00 -
Mi, 19.06. 7:55 -
Mi, 19.06. 7:25 -
Mi, 19.06. 7:00 -
Mi, 19.06. 6:55 -
Mi, 19.06. 6:25 -
Mi, 19.06. 6:00 -
Mi, 19.06. 5:25 -
Mi, 19.06. 5:00 -
Link zu dieser Seite / Seite empfehlen

Das Wetter in ...